sensor_id;sensor_type;location;lat;lon;timestamp;P1;durP1;ratioP1;P2;durP2;ratioP2
71806;SDS011;59655;42.590;23.364;2023-03-01T00:02:19;2.03;;;1.38;;
71806;SDS011;59655;42.590;23.364;2023-03-01T00:04:45;1.90;;;1.40;;
71806;SDS011;59655;42.590;23.364;2023-03-01T00:07:12;2.47;;;1.50;;
71806;SDS011;59655;42.590;23.364;2023-03-01T00:09:37;2.03;;;1.30;;
71806;SDS011;59655;42.590;23.364;2023-03-01T00:12:05;2.05;;;1.33;;
71806;SDS011;59655;42.590;23.364;2023-03-01T00:14:31;2.72;;;1.55;;
71806;SDS011;59655;42.590;23.364;2023-03-01T00:16:57;2.55;;;1.77;;
71806;SDS011;59655;42.590;23.364;2023-03-01T00:19:22;2.63;;;1.52;;
71806;SDS011;59655;42.590;23.364;2023-03-01T00:21:48;2.33;;;1.75;;
71806;SDS011;59655;42.590;23.364;2023-03-01T00:24:14;2.10;;;1.27;;
71806;SDS011;59655;42.590;23.364;2023-03-01T00:26:39;2.03;;;1.30;;
71806;SDS011;59655;42.590;23.364;2023-03-01T00:29:05;1.98;;;1.27;;
71806;SDS011;59655;42.590;23.364;2023-03-01T00:31:31;1.70;;;1.25;;
71806;SDS011;59655;42.590;23.364;2023-03-01T00:33:59;1.65;;;1.10;;
71806;SDS011;59655;42.590;23.364;2023-03-01T00:36:30;1.98;;;1.10;;
71806;SDS011;59655;42.590;23.364;2023-03-01T00:39:02;1.30;;;0.98;;
71806;SDS011;59655;42.590;23.364;2023-03-01T00:41:29;1.52;;;1.10;;
71806;SDS011;59655;42.590;23.364;2023-03-01T00:43:55;1.52;;;1.00;;
71806;SDS011;59655;42.590;23.364;2023-03-01T00:46:22;1.35;;;0.77;;
71806;SDS011;59655;42.590;23.364;2023-03-01T00:48:50;1.80;;;1.10;;
71806;SDS011;59655;42.590;23.364;2023-03-01T00:53:42;1.92;;;1.00;;
71806;SDS011;59655;42.590;23.364;2023-03-01T00:56:09;1.13;;;0.70;;
71806;SDS011;59655;42.590;23.364;2023-03-01T00:58:37;1.27;;;0.88;;
71806;SDS011;59655;42.590;23.364;2023-03-01T01:03:42;0.70;;;0.60;;
71806;SDS011;59655;42.590;23.364;2023-03-01T01:06:15;1.35;;;1.00;;
71806;SDS011;59655;42.590;23.364;2023-03-01T01:08:42;1.58;;;0.80;;
71806;SDS011;59655;42.590;23.364;2023-03-01T01:11:08;1.08;;;0.70;;
71806;SDS011;59655;42.590;23.364;2023-03-01T01:13:35;1.20;;;0.88;;
71806;SDS011;59655;42.590;23.364;2023-03-01T01:16:02;1.33;;;0.80;;
71806;SDS011;59655;42.590;23.364;2023-03-01T01:18:28;2.75;;;2.50;;
71806;SDS011;59655;42.590;23.364;2023-03-01T01:20:54;1.52;;;1.33;;
71806;SDS011;59655;42.590;23.364;2023-03-01T01:23:19;1.52;;;0.93;;
71806;SDS011;59655;42.590;23.364;2023-03-01T01:25:45;2.45;;;1.10;;
71806;SDS011;59655;42.590;23.364;2023-03-01T01:28:10;3.03;;;1.10;;
71806;SDS011;59655;42.590;23.364;2023-03-01T01:30:36;0.80;;;0.70;;
71806;SDS011;59655;42.590;23.364;2023-03-01T01:33:01;0.60;;;0.60;;
71806;SDS011;59655;42.590;23.364;2023-03-01T01:35:27;0.88;;;0.60;;
71806;SDS011;59655;42.590;23.364;2023-03-01T01:37:52;0.98;;;0.50;;
71806;SDS011;59655;42.590;23.364;2023-03-01T01:40:18;1.08;;;0.82;;
71806;SDS011;59655;42.590;23.364;2023-03-01T01:42:43;1.27;;;0.85;;
71806;SDS011;59655;42.590;23.364;2023-03-01T01:50:16;0.75;;;0.60;;
71806;SDS011;59655;42.590;23.364;2023-03-01T01:52:43;1.02;;;0.70;;
71806;SDS011;59655;42.590;23.364;2023-03-01T01:55:12;1.55;;;0.80;;
71806;SDS011;59655;42.590;23.364;2023-03-01T01:57:42;1.50;;;0.90;;
71806;SDS011;59655;42.590;23.364;2023-03-01T02:00:11;9.82;;;6.50;;
71806;SDS011;59655;42.590;23.364;2023-03-01T02:02:41;2.05;;;1.10;;
71806;SDS011;59655;42.590;23.364;2023-03-01T02:05:11;1.00;;;0.60;;
71806;SDS011;59655;42.590;23.364;2023-03-01T02:07:48;1.58;;;0.82;;
71806;SDS011;59655;42.590;23.364;2023-03-01T02:10:14;1.17;;;0.60;;
71806;SDS011;59655;42.590;23.364;2023-03-01T02:12:40;2.08;;;0.90;;
71806;SDS011;59655;42.590;23.364;2023-03-01T02:15:06;1.17;;;0.73;;
71806;SDS011;59655;42.590;23.364;2023-03-01T02:17:32;1.75;;;0.90;;
71806;SDS011;59655;42.590;23.364;2023-03-01T02:22:52;2.13;;;1.25;;
71806;SDS011;59655;42.590;23.364;2023-03-01T02:25:25;1.92;;;1.20;;
71806;SDS011;59655;42.590;23.364;2023-03-01T02:30:40;1.92;;;1.23;;
71806;SDS011;59655;42.590;23.364;2023-03-01T02:33:27;2.33;;;1.42;;
71806;SDS011;59655;42.590;23.364;2023-03-01T02:35:58;1.88;;;1.20;;
71806;SDS011;59655;42.590;23.364;2023-03-01T02:38:25;2.05;;;1.25;;
71806;SDS011;59655;42.590;23.364;2023-03-01T02:40:51;2.05;;;1.20;;
71806;SDS011;59655;42.590;23.364;2023-03-01T02:43:19;1.77;;;1.08;;
71806;SDS011;59655;42.590;23.364;2023-03-01T02:45:48;1.85;;;1.10;;
71806;SDS011;59655;42.590;23.364;2023-03-01T02:48:15;1.70;;;1.10;;
71806;SDS011;59655;42.590;23.364;2023-03-01T02:53:15;2.30;;;1.55;;
71806;SDS011;59655;42.590;23.364;2023-03-01T02:55:48;2.03;;;1.30;;
71806;SDS011;59655;42.590;23.364;2023-03-01T02:58:14;3.40;;;1.50;;
71806;SDS011;59655;42.590;23.364;2023-03-01T03:00:41;2.40;;;1.60;;
71806;SDS011;59655;42.590;23.364;2023-03-01T03:03:20;2.20;;;1.40;;
71806;SDS011;59655;42.590;23.364;2023-03-01T03:05:47;2.78;;;1.60;;
71806;SDS011;59655;42.590;23.364;2023-03-01T03:08:13;3.50;;;2.03;;
71806;SDS011;59655;42.590;23.364;2023-03-01T03:10:41;3.83;;;2.30;;
71806;SDS011;59655;42.590;23.364;2023-03-01T03:13:10;5.60;;;2.65;;
71806;SDS011;59655;42.590;23.364;2023-03-01T03:15:38;6.82;;;2.80;;
71806;SDS011;59655;42.590;23.364;2023-03-01T03:18:05;4.65;;;2.40;;
71806;SDS011;59655;42.590;23.364;2023-03-01T03:20:32;3.78;;;1.95;;
71806;SDS011;59655;42.590;23.364;2023-03-01T03:22:58;3.15;;;1.40;;
71806;SDS011;59655;42.590;23.364;2023-03-01T03:25:24;3.10;;;1.98;;
71806;SDS011;59655;42.590;23.364;2023-03-01T03:27:51;2.70;;;2.00;;
71806;SDS011;59655;42.590;23.364;2023-03-01T03:30:22;2.28;;;1.52;;
71806;SDS011;59655;42.590;23.364;2023-03-01T03:32:52;2.97;;;1.70;;
71806;SDS011;59655;42.590;23.364;2023-03-01T03:35:19;2.80;;;1.90;;
71806;SDS011;59655;42.590;23.364;2023-03-01T03:37:46;2.22;;;1.50;;
71806;SDS011;59655;42.590;23.364;2023-03-01T03:40:28;2.70;;;1.63;;
71806;SDS011;59655;42.590;23.364;2023-03-01T03:43:00;2.28;;;1.40;;
71806;SDS011;59655;42.590;23.364;2023-03-01T03:45:26;2.15;;;1.30;;
71806;SDS011;59655;42.590;23.364;2023-03-01T03:47:52;2.17;;;1.42;;
71806;SDS011;59655;42.590;23.364;2023-03-01T03:50:18;2.70;;;1.40;;
71806;SDS011;59655;42.590;23.364;2023-03-01T03:52:44;2.58;;;1.60;;
71806;SDS011;59655;42.590;23.364;2023-03-01T03:55:10;2.72;;;1.73;;
71806;SDS011;59655;42.590;23.364;2023-03-01T03:57:38;2.25;;;1.23;;
71806;SDS011;59655;42.590;23.364;2023-03-01T04:00:05;2.97;;;1.63;;
71806;SDS011;59655;42.590;23.364;2023-03-01T04:02:41;2.20;;;1.33;;
71806;SDS011;59655;42.590;23.364;2023-03-01T04:05:08;1.88;;;1.13;;
71806;SDS011;59655;42.590;23.364;2023-03-01T04:07:35;2.85;;;1.40;;
71806;SDS011;59655;42.590;23.364;2023-03-01T04:10:05;2.22;;;1.30;;
71806;SDS011;59655;42.590;23.364;2023-03-01T04:12:34;2.42;;;1.33;;
71806;SDS011;59655;42.590;23.364;2023-03-01T04:15:00;2.30;;;1.30;;
71806;SDS011;59655;42.590;23.364;2023-03-01T04:17:45;5.28;;;3.65;;
71806;SDS011;59655;42.590;23.364;2023-03-01T04:20:22;3.17;;;2.10;;
71806;SDS011;59655;42.590;23.364;2023-03-01T04:22:58;3.03;;;1.67;;
71806;SDS011;59655;42.590;23.364;2023-03-01T04:25:37;6.68;;;4.53;;
71806;SDS011;59655;42.590;23.364;2023-03-01T04:28:08;7.55;;;4.90;;
71806;SDS011;59655;42.590;23.364;2023-03-01T04:30:35;11.93;;;8.07;;
71806;SDS011;59655;42.590;23.364;2023-03-01T04:33:03;8.13;;;5.10;;
71806;SDS011;59655;42.590;23.364;2023-03-01T04:35:30;3.00;;;1.60;;
71806;SDS011;59655;42.590;23.364;2023-03-01T04:37:57;2.13;;;1.30;;
71806;SDS011;59655;42.590;23.364;2023-03-01T04:40:22;5.40;;;2.83;;
71806;SDS011;59655;42.590;23.364;2023-03-01T04:42:48;14.15;;;7.63;;
71806;SDS011;59655;42.590;23.364;2023-03-01T04:45:14;20.38;;;11.32;;
71806;SDS011;59655;42.590;23.364;2023-03-01T04:47:40;27.70;;;14.82;;
71806;SDS011;59655;42.590;23.364;2023-03-01T04:50:08;28.30;;;14.73;;
71806;SDS011;59655;42.590;23.364;2023-03-01T04:52:34;17.95;;;10.98;;
71806;SDS011;59655;42.590;23.364;2023-03-01T04:55:00;4.43;;;2.58;;
71806;SDS011;59655;42.590;23.364;2023-03-01T04:57:26;5.05;;;2.53;;
71806;SDS011;59655;42.590;23.364;2023-03-01T04:59:51;2.25;;;1.10;;
71806;SDS011;59655;42.590;23.364;2023-03-01T05:02:17;2.53;;;1.40;;
71806;SDS011;59655;42.590;23.364;2023-03-01T05:04:42;2.33;;;1.17;;
71806;SDS011;59655;42.590;23.364;2023-03-01T05:07:08;2.83;;;1.55;;
71806;SDS011;59655;42.590;23.364;2023-03-01T05:09:33;3.13;;;1.50;;
71806;SDS011;59655;42.590;23.364;2023-03-01T05:11:58;2.95;;;1.45;;
71806;SDS011;59655;42.590;23.364;2023-03-01T05:14:24;3.03;;;1.23;;
71806;SDS011;59655;42.590;23.364;2023-03-01T05:16:49;1.90;;;1.10;;
71806;SDS011;59655;42.590;23.364;2023-03-01T05:19:15;2.47;;;1.20;;
71806;SDS011;59655;42.590;23.364;2023-03-01T05:21:41;3.50;;;1.70;;
71806;SDS011;59655;42.590;23.364;2023-03-01T05:24:26;2.60;;;1.40;;
71806;SDS011;59655;42.590;23.364;2023-03-01T05:26:53;4.35;;;2.00;;
71806;SDS011;59655;42.590;23.364;2023-03-01T05:29:22;3.88;;;1.80;;
71806;SDS011;59655;42.590;23.364;2023-03-01T05:31:52;2.92;;;1.70;;
71806;SDS011;59655;42.590;23.364;2023-03-01T05:34:19;3.47;;;2.15;;
71806;SDS011;59655;42.590;23.364;2023-03-01T05:36:54;5.30;;;1.80;;
71806;SDS011;59655;42.590;23.364;2023-03-01T05:39:20;3.10;;;1.30;;
71806;SDS011;59655;42.590;23.364;2023-03-01T05:41:47;3.15;;;1.30;;
71806;SDS011;59655;42.590;23.364;2023-03-01T05:44:16;1.88;;;1.00;;
71806;SDS011;59655;42.590;23.364;2023-03-01T05:46:42;3.15;;;1.42;;
71806;SDS011;59655;42.590;23.364;2023-03-01T05:49:07;3.63;;;1.15;;
71806;SDS011;59655;42.590;23.364;2023-03-01T05:51:33;2.47;;;1.20;;
71806;SDS011;59655;42.590;23.364;2023-03-01T05:53:59;5.05;;;2.92;;
71806;SDS011;59655;42.590;23.364;2023-03-01T05:56:24;10.02;;;5.47;;
71806;SDS011;59655;42.590;23.364;2023-03-01T05:58:50;3.97;;;1.90;;
71806;SDS011;59655;42.590;23.364;2023-03-01T06:01:16;2.50;;;1.50;;
71806;SDS011;59655;42.590;23.364;2023-03-01T06:03:41;2.13;;;1.00;;
71806;SDS011;59655;42.590;23.364;2023-03-01T06:06:07;1.80;;;1.00;;
71806;SDS011;59655;42.590;23.364;2023-03-01T06:08:32;2.35;;;1.08;;
71806;SDS011;59655;42.590;23.364;2023-03-01T06:10:58;1.80;;;0.90;;
71806;SDS011;59655;42.590;23.364;2023-03-01T06:13:23;4.85;;;2.05;;
71806;SDS011;59655;42.590;23.364;2023-03-01T06:15:49;3.75;;;2.10;;
71806;SDS011;59655;42.590;23.364;2023-03-01T06:18:15;3.33;;;2.50;;
71806;SDS011;59655;42.590;23.364;2023-03-01T06:20:40;3.10;;;1.60;;
71806;SDS011;59655;42.590;23.364;2023-03-01T06:23:06;3.08;;;1.35;;
71806;SDS011;59655;42.590;23.364;2023-03-01T06:25:31;5.78;;;2.92;;
71806;SDS011;59655;42.590;23.364;2023-03-01T06:27:57;7.60;;;4.32;;
71806;SDS011;59655;42.590;23.364;2023-03-01T06:30:24;9.38;;;6.70;;
71806;SDS011;59655;42.590;23.364;2023-03-01T06:32:50;12.40;;;7.90;;
71806;SDS011;59655;42.590;23.364;2023-03-01T06:35:16;9.10;;;4.95;;
71806;SDS011;59655;42.590;23.364;2023-03-01T06:37:42;12.48;;;6.93;;
71806;SDS011;59655;42.590;23.364;2023-03-01T06:40:10;6.13;;;3.63;;
71806;SDS011;59655;42.590;23.364;2023-03-01T06:42:39;2.22;;;1.25;;
71806;SDS011;59655;42.590;23.364;2023-03-01T06:45:06;5.13;;;2.70;;
71806;SDS011;59655;42.590;23.364;2023-03-01T06:47:33;7.55;;;3.10;;
71806;SDS011;59655;42.590;23.364;2023-03-01T06:49:59;14.50;;;9.38;;
71806;SDS011;59655;42.590;23.364;2023-03-01T06:52:25;17.52;;;10.65;;
71806;SDS011;59655;42.590;23.364;2023-03-01T06:54:51;13.55;;;8.30;;
71806;SDS011;59655;42.590;23.364;2023-03-01T06:57:16;12.88;;;8.52;;
71806;SDS011;59655;42.590;23.364;2023-03-01T06:59:42;3.53;;;2.38;;
71806;SDS011;59655;42.590;23.364;2023-03-01T07:02:12;4.15;;;2.80;;
71806;SDS011;59655;42.590;23.364;2023-03-01T07:04:38;6.47;;;5.20;;
71806;SDS011;59655;42.590;23.364;2023-03-01T07:07:04;4.97;;;3.85;;
71806;SDS011;59655;42.590;23.364;2023-03-01T07:09:30;4.93;;;3.90;;
71806;SDS011;59655;42.590;23.364;2023-03-01T07:11:57;10.38;;;3.70;;
71806;SDS011;59655;42.590;23.364;2023-03-01T07:14:23;6.10;;;4.18;;
71806;SDS011;59655;42.590;23.364;2023-03-01T07:19:18;4.28;;;3.15;;
71806;SDS011;59655;42.590;23.364;2023-03-01T07:21:44;8.90;;;3.33;;
71806;SDS011;59655;42.590;23.364;2023-03-01T07:24:10;5.55;;;3.83;;
71806;SDS011;59655;42.590;23.364;2023-03-01T07:26:35;5.57;;;3.42;;
71806;SDS011;59655;42.590;23.364;2023-03-01T07:29:02;4.85;;;2.97;;
71806;SDS011;59655;42.590;23.364;2023-03-01T07:31:29;2.92;;;1.70;;
71806;SDS011;59655;42.590;23.364;2023-03-01T07:33:55;8.15;;;5.25;;
71806;SDS011;59655;42.590;23.364;2023-03-01T07:36:21;6.55;;;3.47;;
71806;SDS011;59655;42.590;23.364;2023-03-01T07:38:47;8.20;;;3.90;;
71806;SDS011;59655;42.590;23.364;2023-03-01T07:41:12;6.80;;;3.70;;
71806;SDS011;59655;42.590;23.364;2023-03-01T07:43:38;8.13;;;4.50;;
71806;SDS011;59655;42.590;23.364;2023-03-01T07:46:03;5.00;;;3.58;;
71806;SDS011;59655;42.590;23.364;2023-03-01T07:48:30;3.75;;;2.30;;
71806;SDS011;59655;42.590;23.364;2023-03-01T07:50:59;4.55;;;2.90;;
71806;SDS011;59655;42.590;23.364;2023-03-01T07:53:26;4.47;;;2.13;;
71806;SDS011;59655;42.590;23.364;2023-03-01T07:56:06;5.18;;;2.20;;
71806;SDS011;59655;42.590;23.364;2023-03-01T07:58:37;5.65;;;4.13;;
71806;SDS011;59655;42.590;23.364;2023-03-01T08:01:04;4.57;;;2.70;;
71806;SDS011;59655;42.590;23.364;2023-03-01T08:03:30;4.10;;;2.13;;
71806;SDS011;59655;42.590;23.364;2023-03-01T08:05:58;5.13;;;2.15;;
71806;SDS011;59655;42.590;23.364;2023-03-01T08:08:25;5.22;;;2.55;;
71806;SDS011;59655;42.590;23.364;2023-03-01T08:10:50;4.18;;;2.30;;
71806;SDS011;59655;42.590;23.364;2023-03-01T08:13:16;4.32;;;2.72;;
71806;SDS011;59655;42.590;23.364;2023-03-01T08:15:47;3.47;;;2.00;;
71806;SDS011;59655;42.590;23.364;2023-03-01T08:18:13;2.55;;;1.83;;
71806;SDS011;59655;42.590;23.364;2023-03-01T08:20:38;9.00;;;2.08;;
71806;SDS011;59655;42.590;23.364;2023-03-01T08:23:04;3.17;;;1.95;;
71806;SDS011;59655;42.590;23.364;2023-03-01T08:25:29;3.20;;;2.47;;
71806;SDS011;59655;42.590;23.364;2023-03-01T08:27:54;7.57;;;4.47;;
71806;SDS011;59655;42.590;23.364;2023-03-01T08:30:20;4.38;;;2.90;;
71806;SDS011;59655;42.590;23.364;2023-03-01T08:32:45;4.78;;;2.28;;
71806;SDS011;59655;42.590;23.364;2023-03-01T08:35:11;8.65;;;4.75;;
71806;SDS011;59655;42.590;23.364;2023-03-01T08:37:36;3.47;;;2.35;;
71806;SDS011;59655;42.590;23.364;2023-03-01T08:40:02;4.80;;;2.67;;
71806;SDS011;59655;42.590;23.364;2023-03-01T08:42:32;14.27;;;6.07;;
71806;SDS011;59655;42.590;23.364;2023-03-01T08:44:58;8.45;;;4.68;;
71806;SDS011;59655;42.590;23.364;2023-03-01T08:47:23;9.10;;;5.53;;
71806;SDS011;59655;42.590;23.364;2023-03-01T08:49:49;3.17;;;2.25;;
71806;SDS011;59655;42.590;23.364;2023-03-01T08:52:15;5.97;;;2.50;;
71806;SDS011;59655;42.590;23.364;2023-03-01T08:54:41;5.13;;;2.45;;
71806;SDS011;59655;42.590;23.364;2023-03-01T08:57:06;3.80;;;2.55;;
71806;SDS011;59655;42.590;23.364;2023-03-01T08:59:31;4.97;;;3.80;;
71806;SDS011;59655;42.590;23.364;2023-03-01T09:02:02;8.77;;;4.07;;
71806;SDS011;59655;42.590;23.364;2023-03-01T09:04:28;5.38;;;4.03;;
71806;SDS011;59655;42.590;23.364;2023-03-01T09:06:54;3.80;;;2.80;;
71806;SDS011;59655;42.590;23.364;2023-03-01T09:09:19;3.67;;;2.80;;
71806;SDS011;59655;42.590;23.364;2023-03-01T09:11:45;3.42;;;2.20;;
71806;SDS011;59655;42.590;23.364;2023-03-01T09:14:14;4.47;;;2.53;;
71806;SDS011;59655;42.590;23.364;2023-03-01T09:16:40;4.88;;;2.58;;
71806;SDS011;59655;42.590;23.364;2023-03-01T09:19:08;3.72;;;2.20;;
71806;SDS011;59655;42.590;23.364;2023-03-01T09:21:34;3.60;;;2.58;;
71806;SDS011;59655;42.590;23.364;2023-03-01T09:24:00;4.13;;;2.10;;
71806;SDS011;59655;42.590;23.364;2023-03-01T09:26:25;4.10;;;2.60;;
71806;SDS011;59655;42.590;23.364;2023-03-01T09:28:52;3.22;;;2.20;;
71806;SDS011;59655;42.590;23.364;2023-03-01T09:31:20;4.55;;;2.00;;
71806;SDS011;59655;42.590;23.364;2023-03-01T09:33:47;4.88;;;2.72;;
71806;SDS011;59655;42.590;23.364;2023-03-01T09:36:15;4.80;;;2.70;;
71806;SDS011;59655;42.590;23.364;2023-03-01T09:41:30;3.70;;;2.40;;
71806;SDS011;59655;42.590;23.364;2023-03-01T09:47:05;4.13;;;2.10;;
71806;SDS011;59655;42.590;23.364;2023-03-01T09:49:39;5.55;;;2.58;;
71806;SDS011;59655;42.590;23.364;2023-03-01T09:55:14;4.13;;;2.60;;
71806;SDS011;59655;42.590;23.364;2023-03-01T09:57:43;6.35;;;4.78;;
71806;SDS011;59655;42.590;23.364;2023-03-01T10:00:20;13.80;;;8.65;;
71806;SDS011;59655;42.590;23.364;2023-03-01T10:03:10;6.50;;;4.03;;
71806;SDS011;59655;42.590;23.364;2023-03-01T10:10:50;5.10;;;3.72;;
71806;SDS011;59655;42.590;23.364;2023-03-01T10:13:19;5.68;;;3.17;;
71806;SDS011;59655;42.590;23.364;2023-03-01T10:15:51;5.18;;;3.45;;
71806;SDS011;59655;42.590;23.364;2023-03-01T10:18:24;6.88;;;4.65;;
71806;SDS011;59655;42.590;23.364;2023-03-01T10:20:53;5.22;;;4.40;;
71806;SDS011;59655;42.590;23.364;2023-03-01T10:23:22;5.72;;;3.90;;
71806;SDS011;59655;42.590;23.364;2023-03-01T10:33:39;4.53;;;3.00;;
71806;SDS011;59655;42.590;23.364;2023-03-01T10:36:06;4.18;;;3.17;;
71806;SDS011;59655;42.590;23.364;2023-03-01T10:38:46;4.35;;;3.38;;
71806;SDS011;59655;42.590;23.364;2023-03-01T10:41:17;5.95;;;5.20;;
71806;SDS011;59655;42.590;23.364;2023-03-01T10:43:45;5.82;;;4.28;;
71806;SDS011;59655;42.590;23.364;2023-03-01T10:51:40;6.05;;;3.67;;
71806;SDS011;59655;42.590;23.364;2023-03-01T10:54:18;7.80;;;3.75;;
71806;SDS011;59655;42.590;23.364;2023-03-01T10:56:53;12.07;;;7.82;;
71806;SDS011;59655;42.590;23.364;2023-03-01T10:59:32;9.73;;;7.10;;
71806;SDS011;59655;42.590;23.364;2023-03-01T11:04:27;6.63;;;4.78;;
71806;SDS011;59655;42.590;23.364;2023-03-01T11:06:59;20.77;;;10.88;;
71806;SDS011;59655;42.590;23.364;2023-03-01T11:09:25;13.77;;;8.65;;
71806;SDS011;59655;42.590;23.364;2023-03-01T11:12:02;5.25;;;3.40;;
71806;SDS011;59655;42.590;23.364;2023-03-01T11:14:35;9.18;;;5.60;;
71806;SDS011;59655;42.590;23.364;2023-03-01T11:17:11;8.82;;;6.68;;
71806;SDS011;59655;42.590;23.364;2023-03-01T11:19:37;12.43;;;5.97;;
71806;SDS011;59655;42.590;23.364;2023-03-01T11:22:12;10.73;;;7.13;;
71806;SDS011;59655;42.590;23.364;2023-03-01T11:24:44;6.18;;;3.75;;
71806;SDS011;59655;42.590;23.364;2023-03-01T11:27:33;6.15;;;4.05;;
71806;SDS011;59655;42.590;23.364;2023-03-01T11:30:01;18.42;;;9.77;;
71806;SDS011;59655;42.590;23.364;2023-03-01T11:35:30;11.35;;;5.97;;
71806;SDS011;59655;42.590;23.364;2023-03-01T11:40:28;7.72;;;3.78;;
71806;SDS011;59655;42.590;23.364;2023-03-01T11:45:41;11.38;;;6.65;;
71806;SDS011;59655;42.590;23.364;2023-03-01T12:10:44;8.40;;;5.40;;
71806;SDS011;59655;42.590;23.364;2023-03-01T12:27:03;7.47;;;4.53;;
71806;SDS011;59655;42.590;23.364;2023-03-01T12:32:47;6.70;;;4.75;;
71806;SDS011;59655;42.590;23.364;2023-03-01T12:45:54;8.82;;;5.05;;
71806;SDS011;59655;42.590;23.364;2023-03-01T12:51:01;9.52;;;5.85;;
71806;SDS011;59655;42.590;23.364;2023-03-01T12:56:02;7.68;;;5.10;;
71806;SDS011;59655;42.590;23.364;2023-03-01T12:58:33;7.10;;;4.93;;
71806;SDS011;59655;42.590;23.364;2023-03-01T13:09:51;8.23;;;3.97;;
71806;SDS011;59655;42.590;23.364;2023-03-01T13:12:44;7.70;;;5.30;;
71806;SDS011;59655;42.590;23.364;2023-03-01T13:20:15;6.68;;;4.35;;
71806;SDS011;59655;42.590;23.364;2023-03-01T13:22:43;6.63;;;4.47;;
71806;SDS011;59655;42.590;23.364;2023-03-01T13:25:15;9.25;;;4.72;;
71806;SDS011;59655;42.590;23.364;2023-03-01T13:27:43;6.15;;;4.13;;
71806;SDS011;59655;42.590;23.364;2023-03-01T13:30:54;8.43;;;5.50;;
71806;SDS011;59655;42.590;23.364;2023-03-01T13:33:45;7.53;;;3.97;;
71806;SDS011;59655;42.590;23.364;2023-03-01T13:35:53;6.55;;;3.72;;
71806;SDS011;59655;42.590;23.364;2023-03-01T13:38:36;7.82;;;4.20;;
71806;SDS011;59655;42.590;23.364;2023-03-01T13:41:04;8.48;;;4.65;;
71806;SDS011;59655;42.590;23.364;2023-03-01T13:43:37;6.82;;;4.03;;
71806;SDS011;59655;42.590;23.364;2023-03-01T13:46:08;7.45;;;3.95;;
71806;SDS011;59655;42.590;23.364;2023-03-01T13:48:36;12.43;;;7.57;;
71806;SDS011;59655;42.590;23.364;2023-03-01T13:51:06;6.72;;;4.05;;
71806;SDS011;59655;42.590;23.364;2023-03-01T13:53:34;7.55;;;4.00;;
71806;SDS011;59655;42.590;23.364;2023-03-01T13:56:07;7.03;;;4.35;;
71806;SDS011;59655;42.590;23.364;2023-03-01T14:03:49;7.95;;;3.80;;
71806;SDS011;59655;42.590;23.364;2023-03-01T14:06:15;6.03;;;3.75;;
71806;SDS011;59655;42.590;23.364;2023-03-01T14:08:45;6.10;;;4.00;;
71806;SDS011;59655;42.590;23.364;2023-03-01T14:19:21;42.90;;;21.75;;
71806;SDS011;59655;42.590;23.364;2023-03-01T14:24:55;10.65;;;5.78;;
71806;SDS011;59655;42.590;23.364;2023-03-01T14:27:23;13.98;;;7.03;;
71806;SDS011;59655;42.590;23.364;2023-03-01T14:30:02;18.67;;;6.88;;
71806;SDS011;59655;42.590;23.364;2023-03-01T14:32:34;12.25;;;7.25;;
71806;SDS011;59655;42.590;23.364;2023-03-01T14:35:00;14.80;;;8.27;;
71806;SDS011;59655;42.590;23.364;2023-03-01T14:39:59;9.40;;;5.80;;
71806;SDS011;59655;42.590;23.364;2023-03-01T14:42:28;8.07;;;4.55;;
71806;SDS011;59655;42.590;23.364;2023-03-01T14:44:59;11.65;;;4.50;;
71806;SDS011;59655;42.590;23.364;2023-03-01T14:47:29;5.82;;;4.18;;
71806;SDS011;59655;42.590;23.364;2023-03-01T14:50:00;8.00;;;4.53;;
71806;SDS011;59655;42.590;23.364;2023-03-01T14:52:31;6.20;;;4.20;;
71806;SDS011;59655;42.590;23.364;2023-03-01T14:55:02;9.48;;;5.38;;
71806;SDS011;59655;42.590;23.364;2023-03-01T14:57:42;9.93;;;4.88;;
71806;SDS011;59655;42.590;23.364;2023-03-01T15:00:10;11.07;;;6.82;;
71806;SDS011;59655;42.590;23.364;2023-03-01T15:02:51;10.60;;;6.30;;
71806;SDS011;59655;42.590;23.364;2023-03-01T15:07:54;9.27;;;6.95;;
71806;SDS011;59655;42.590;23.364;2023-03-01T15:10:23;12.45;;;7.88;;
71806;SDS011;59655;42.590;23.364;2023-03-01T15:12:51;13.10;;;9.93;;
71806;SDS011;59655;42.590;23.364;2023-03-01T15:18:15;11.27;;;6.45;;
71806;SDS011;59655;42.590;23.364;2023-03-01T15:20:41;11.43;;;6.28;;
71806;SDS011;59655;42.590;23.364;2023-03-01T15:23:16;12.63;;;5.68;;
71806;SDS011;59655;42.590;23.364;2023-03-01T15:25:43;10.63;;;6.07;;
71806;SDS011;59655;42.590;23.364;2023-03-01T15:28:12;11.35;;;5.93;;
71806;SDS011;59655;42.590;23.364;2023-03-01T15:30:51;12.65;;;6.75;;
71806;SDS011;59655;42.590;23.364;2023-03-01T15:33:28;14.43;;;7.82;;
71806;SDS011;59655;42.590;23.364;2023-03-01T15:35:59;14.10;;;8.25;;
71806;SDS011;59655;42.590;23.364;2023-03-01T15:38:28;13.88;;;8.77;;
71806;SDS011;59655;42.590;23.364;2023-03-01T15:40:57;15.75;;;9.10;;
71806;SDS011;59655;42.590;23.364;2023-03-01T15:46:02;9.77;;;6.03;;
71806;SDS011;59655;42.590;23.364;2023-03-01T15:48:29;9.15;;;5.95;;
71806;SDS011;59655;42.590;23.364;2023-03-01T15:50:57;10.98;;;5.57;;
71806;SDS011;59655;42.590;23.364;2023-03-01T15:53:24;12.07;;;7.63;;
71806;SDS011;59655;42.590;23.364;2023-03-01T15:55:52;8.70;;;5.15;;
71806;SDS011;59655;42.590;23.364;2023-03-01T15:58:19;11.38;;;6.18;;
71806;SDS011;59655;42.590;23.364;2023-03-01T16:00:47;8.98;;;4.75;;
71806;SDS011;59655;42.590;23.364;2023-03-01T16:03:16;14.10;;;7.57;;
71806;SDS011;59655;42.590;23.364;2023-03-01T16:05:46;12.40;;;7.85;;
71806;SDS011;59655;42.590;23.364;2023-03-01T16:08:12;13.55;;;7.88;;
71806;SDS011;59655;42.590;23.364;2023-03-01T16:10:38;7.75;;;4.43;;
71806;SDS011;59655;42.590;23.364;2023-03-01T16:13:05;8.27;;;5.25;;
71806;SDS011;59655;42.590;23.364;2023-03-01T16:15:32;7.53;;;4.28;;
71806;SDS011;59655;42.590;23.364;2023-03-01T16:18:01;17.70;;;8.60;;
71806;SDS011;59655;42.590;23.364;2023-03-01T16:20:28;12.95;;;7.00;;
71806;SDS011;59655;42.590;23.364;2023-03-01T16:22:55;13.35;;;6.38;;
71806;SDS011;59655;42.590;23.364;2023-03-01T16:25:23;12.82;;;7.55;;
71806;SDS011;59655;42.590;23.364;2023-03-01T16:27:49;15.73;;;8.70;;
71806;SDS011;59655;42.590;23.364;2023-03-01T16:30:17;20.65;;;10.88;;
71806;SDS011;59655;42.590;23.364;2023-03-01T16:32:45;15.10;;;8.65;;
71806;SDS011;59655;42.590;23.364;2023-03-01T16:35:12;12.00;;;6.60;;
71806;SDS011;59655;42.590;23.364;2023-03-01T16:37:39;8.20;;;5.03;;
71806;SDS011;59655;42.590;23.364;2023-03-01T16:40:06;6.65;;;3.63;;
71806;SDS011;59655;42.590;23.364;2023-03-01T16:42:41;8.65;;;4.82;;
71806;SDS011;59655;42.590;23.364;2023-03-01T16:45:07;16.30;;;7.70;;
71806;SDS011;59655;42.590;23.364;2023-03-01T16:47:33;19.70;;;9.35;;
71806;SDS011;59655;42.590;23.364;2023-03-01T16:49:59;25.75;;;12.23;;
71806;SDS011;59655;42.590;23.364;2023-03-01T16:52:25;23.45;;;11.10;;
71806;SDS011;59655;42.590;23.364;2023-03-01T16:54:51;20.85;;;9.13;;
71806;SDS011;59655;42.590;23.364;2023-03-01T16:57:17;33.47;;;13.70;;
71806;SDS011;59655;42.590;23.364;2023-03-01T16:59:44;20.83;;;11.25;;
71806;SDS011;59655;42.590;23.364;2023-03-01T17:02:11;15.15;;;9.02;;
71806;SDS011;59655;42.590;23.364;2023-03-01T17:04:38;14.18;;;7.03;;
71806;SDS011;59655;42.590;23.364;2023-03-01T17:07:04;12.32;;;5.40;;
71806;SDS011;59655;42.590;23.364;2023-03-01T17:09:29;10.85;;;4.72;;
71806;SDS011;59655;42.590;23.364;2023-03-01T17:11:58;7.70;;;3.45;;
71806;SDS011;59655;42.590;23.364;2023-03-01T17:14:24;5.55;;;3.28;;